Time;durP1;ratioP1;P1;durP2;ratioP2;P2;SDS_P1;SDS_P2;PMS_P1;PMS_P2;Temp;Humidity;BMP_temperature;BMP_pressure;BME280_temperature;BME280_humidity;BME280_pressure;Samples;Min_cycle;Max_cycle;Signal;HPM_P1;HPM_P2
2021/09/12 00:01:20;;;;;;;21.33;10.70;;;25.00;50.10;;;;;;6178635;28;83362;-64
2021/09/12 00:04:20;;;;;;;17.60;10.95;;;25.00;50.40;;;;;;6170990;28;83327;-65
2021/09/12 00:07:21;;;;;;;18.73;10.18;;;24.90;50.20;;;;;;6181569;28;90036;-65
2021/09/12 00:10:21;;;;;;;16.67;10.73;;;24.90;50.00;;;;;;6180628;28;84146;-65
2021/09/12 00:13:22;;;;;;;17.55;10.25;;;24.90;50.00;;;;;;6181320;28;83295;-66
2021/09/12 00:16:22;;;;;;;14.68;9.98;;;25.00;50.20;;;;;;6180713;28;83126;-65
2021/09/12 00:19:24;;;;;;;17.75;11.20;;;24.90;50.00;;;;;;6179498;28;83480;-64
2021/09/12 00:22:25;;;;;;;17.45;9.45;;;24.90;50.30;;;;;;6169214;28;83752;-64
2021/09/12 00:25:25;;;;;;;15.65;9.98;;;24.90;49.90;;;;;;6181616;28;83426;-64
2021/09/12 00:28:26;;;;;;;16.00;9.93;;;24.90;50.50;;;;;;6174468;28;83067;-65
2021/09/12 00:31:26;;;;;;;19.63;10.60;;;24.90;50.10;;;;;;6185145;28;83540;-65
2021/09/12 00:34:27;;;;;;;16.52;10.68;;;24.90;50.20;;;;;;6171970;28;82797;-65
2021/09/12 00:37:27;;;;;;;14.65;9.55;;;24.90;50.00;;;;;;6184562;28;83076;-65
2021/09/12 00:40:28;;;;;;;14.88;9.85;;;24.90;50.20;;;;;;6180549;28;84189;-65
2021/09/12 00:43:28;;;;;;;14.63;9.48;;;24.90;50.20;;;;;;6184280;28;81579;-65
2021/09/12 00:46:29;;;;;;;16.33;9.43;;;24.90;50.70;;;;;;6190963;28;81538;-65
2021/09/12 00:49:29;;;;;;;14.60;9.88;;;24.90;50.30;;;;;;6196211;28;80824;-66
2021/09/12 00:52:30;;;;;;;15.05;9.75;;;24.90;50.10;;;;;;6181441;28;80436;-65
2021/09/12 00:55:30;;;;;;;15.98;9.77;;;24.90;50.00;;;;;;6182758;28;81310;-66
2021/09/12 00:58:31;;;;;;;14.43;9.10;;;24.90;50.20;;;;;;6181522;28;80453;-66
2021/09/12 01:01:31;;;;;;;14.77;9.15;;;24.90;50.20;;;;;;6181566;28;80819;-67
2021/09/12 01:04:32;;;;;;;16.80;9.23;;;24.90;50.40;;;;;;6179521;28;80437;-66
2021/09/12 01:07:32;;;;;;;16.05;9.07;;;24.90;50.30;;;;;;6192488;28;80576;-66
2021/09/12 01:10:33;;;;;;;12.55;8.65;;;24.90;49.80;;;;;;6191794;28;81755;-67
2021/09/12 01:13:33;;;;;;;14.60;9.18;;;24.90;49.90;;;;;;6186919;28;80337;-66
2021/09/12 01:16:34;;;;;;;18.38;9.60;;;24.90;49.80;;;;;;6189739;28;80316;-66
2021/09/12 01:19:34;;;;;;;14.05;9.48;;;24.90;49.80;;;;;;6198446;28;81499;-66
2021/09/12 01:22:35;;;;;;;17.80;9.82;;;24.80;49.60;;;;;;6172052;28;80777;-66
2021/09/12 01:25:35;;;;;;;15.65;8.73;;;24.90;49.60;;;;;;6185915;28;81238;-64
2021/09/12 01:28:36;;;;;;;15.05;9.48;;;24.90;50.00;;;;;;6185204;28;80865;-65
2021/09/12 01:31:36;;;;;;;14.20;8.77;;;24.80;49.90;;;;;;6175167;28;81589;-65
2021/09/12 01:34:37;;;;;;;16.10;10.32;;;24.80;49.50;;;;;;6187743;28;80373;-65
2021/09/12 01:37:38;;;;;;;13.93;8.80;;;24.80;49.80;;;;;;6183134;28;83120;-65
2021/09/12 01:40:39;;;;;;;15.60;8.63;;;24.90;49.70;;;;;;6197934;28;84039;-65
2021/09/12 01:43:39;;;;;;;17.60;9.25;;;24.80;49.80;;;;;;6186328;28;81434;-65
2021/09/12 01:46:46;;;;;;;14.40;9.25;;;24.80;49.50;;;;;;6176233;28;80953;-65
2021/09/12 01:49:47;;;;;;;14.27;8.32;;;24.80;49.10;;;;;;6181146;28;80629;-65
2021/09/12 01:52:47;;;;;;;14.63;8.38;;;24.80;49.70;;;;;;6182538;28;81357;-66
2021/09/12 01:55:47;;;;;;;14.57;9.30;;;24.80;49.50;;;;;;6181222;28;80412;-65
2021/09/12 01:58:48;;;;;;;13.32;8.43;;;24.80;49.20;;;;;;6179162;28;80583;-65
2021/09/12 02:01:48;;;;;;;13.23;9.13;;;24.80;49.80;;;;;;6186158;28;80935;-64
2021/09/12 02:04:49;;;;;;;14.27;8.65;;;24.80;49.50;;;;;;6177317;28;81340;-65
2021/09/12 02:07:49;;;;;;;14.02;8.30;;;24.80;49.50;;;;;;6185514;28;80974;-65
2021/09/12 02:10:50;;;;;;;14.45;8.52;;;24.80;49.40;;;;;;6174686;28;80995;-65
2021/09/12 02:13:50;;;;;;;10.68;8.15;;;24.80;49.50;;;;;;6174576;28;80130;-65
2021/09/12 02:16:51;;;;;;;12.45;8.80;;;24.80;49.40;;;;;;6180260;28;81058;-66
2021/09/12 02:19:51;;;;;;;12.18;8.27;;;24.80;49.60;;;;;;6180595;28;80784;-65
2021/09/12 02:22:52;;;;;;;11.07;7.97;;;24.80;49.70;;;;;;6183830;28;82425;-66
2021/09/12 02:25:52;;;;;;;13.70;8.05;;;24.80;49.90;;;;;;6183665;28;80335;-66
2021/09/12 02:28:53;;;;;;;13.38;8.25;;;24.80;49.60;;;;;;6180798;28;83013;-65
2021/09/12 02:31:54;;;;;;;15.13;8.15;;;24.80;49.90;;;;;;6179518;28;80138;-66
2021/09/12 02:34:54;;;;;;;10.88;7.25;;;24.80;49.90;;;;;;6176459;28;80575;-66
2021/09/12 02:37:54;;;;;;;10.38;7.10;;;24.80;50.00;;;;;;6180571;28;80846;-66
2021/09/12 02:40:59;;;;;;;13.35;8.05;;;24.80;49.50;;;;;;6182369;28;80673;-65
2021/09/12 02:43:59;;;;;;;12.65;7.57;;;24.80;49.50;;;;;;6179972;28;81902;-65
2021/09/12 02:47:00;;;;;;;10.90;7.82;;;24.80;49.60;;;;;;6176325;28;82825;-65
2021/09/12 02:50:00;;;;;;;16.17;7.80;;;24.80;49.80;;;;;;6182404;28;80409;-65
2021/09/12 02:53:01;;;;;;;11.80;8.15;;;24.80;49.80;;;;;;6187551;28;87006;-66
2021/09/12 02:56:01;;;;;;;11.02;7.50;;;24.80;49.70;;;;;;6199603;28;80702;-66
2021/09/12 02:59:02;;;;;;;9.45;7.15;;;24.80;49.70;;;;;;6175947;28;80711;-65
2021/09/12 03:02:02;;;;;;;10.90;7.65;;;24.80;49.40;;;;;;6175515;28;80604;-65
2021/09/12 03:05:03;;;;;;;12.82;7.80;;;24.70;49.70;;;;;;6201504;28;81123;-65
2021/09/12 03:08:03;;;;;;;12.18;7.32;;;24.80;49.80;;;;;;6193108;28;81423;-66
2021/09/12 03:11:04;;;;;;;13.25;7.95;;;24.80;49.80;;;;;;6198191;28;80997;-66
2021/09/12 03:14:04;;;;;;;11.50;7.10;;;24.80;49.70;;;;;;6181129;28;80520;-65
2021/09/12 03:17:05;;;;;;;13.68;8.00;;;24.70;49.40;;;;;;6185546;28;80736;-65
2021/09/12 03:20:05;;;;;;;16.77;8.25;;;24.70;49.50;;;;;;6188974;28;81383;-65
2021/09/12 03:23:06;;;;;;;12.25;7.35;;;24.70;49.70;;;;;;6185092;28;82112;-65
2021/09/12 03:26:06;;;;;;;11.52;7.30;;;24.70;49.40;;;;;;6183983;28;81964;-65
2021/09/12 03:29:07;;;;;;;11.80;7.60;;;24.70;49.40;;;;;;6185984;28;80235;-64
2021/09/12 03:32:07;;;;;;;11.32;7.80;;;24.70;49.50;;;;;;6181074;28;81053;-65
2021/09/12 03:35:08;;;;;;;10.63;6.93;;;24.70;49.50;;;;;;6173751;28;80582;-65
2021/09/12 03:38:08;;;;;;;11.55;7.35;;;24.70;49.90;;;;;;6186885;28;80509;-64
2021/09/12 03:41:09;;;;;;;11.43;7.00;;;24.70;49.60;;;;;;6185294;28;80083;-66
2021/09/12 03:44:09;;;;;;;12.35;7.20;;;24.70;49.30;;;;;;6180256;28;80391;-66
2021/09/12 03:47:10;;;;;;;9.23;6.57;;;24.70;49.60;;;;;;6187427;28;80347;-65
2021/09/12 03:50:10;;;;;;;12.30;7.57;;;24.70;49.40;;;;;;6184014;28;80518;-65
2021/09/12 03:53:11;;;;;;;11.95;7.32;;;24.70;49.60;;;;;;6182852;28;80584;-64
2021/09/12 03:56:13;;;;;;;12.23;7.50;;;24.70;49.60;;;;;;6184393;28;81359;-64
2021/09/12 03:59:14;;;;;;;12.13;7.07;;;24.70;49.70;;;;;;6183973;28;80589;-64
2021/09/12 04:02:14;;;;;;;9.00;6.97;;;24.70;49.80;;;;;;6190474;28;80936;-65
2021/09/12 04:05:15;;;;;;;10.27;6.97;;;24.70;49.60;;;;;;6178714;28;83934;-65
2021/09/12 04:08:15;;;;;;;10.35;6.78;;;24.70;50.10;;;;;;6179222;28;80385;-65
2021/09/12 04:11:16;;;;;;;12.15;7.47;;;24.70;49.70;;;;;;6184352;28;82519;-66
2021/09/12 04:14:16;;;;;;;9.27;6.25;;;24.70;49.40;;;;;;6185226;28;80616;-64
2021/09/12 04:17:17;;;;;;;12.05;8.02;;;24.70;49.90;;;;;;6182931;28;80949;-64
2021/09/12 04:20:17;;;;;;;10.20;6.63;;;24.70;49.80;;;;;;6183648;28;80845;-63
2021/09/12 04:23:18;;;;;;;10.85;6.72;;;24.70;49.60;;;;;;6187961;28;82127;-64
2021/09/12 04:26:18;;;;;;;10.10;6.70;;;24.70;49.80;;;;;;6194839;28;80340;-64
2021/09/12 04:29:19;;;;;;;9.70;7.05;;;24.70;49.80;;;;;;6188799;28;80232;-64
2021/09/12 04:32:19;;;;;;;10.90;7.07;;;24.70;49.50;;;;;;6193452;28;80871;-64
2021/09/12 04:35:20;;;;;;;10.20;6.32;;;24.70;49.50;;;;;;6193627;28;80448;-64
2021/09/12 04:38:20;;;;;;;12.10;7.75;;;24.70;49.70;;;;;;6194501;28;80873;-64
2021/09/12 04:41:21;;;;;;;9.30;6.78;;;24.70;49.30;;;;;;6185005;28;80902;-63
2021/09/12 04:44:21;;;;;;;9.73;6.20;;;24.70;49.20;;;;;;6195116;28;80806;-61
2021/09/12 04:47:22;;;;;;;25.27;6.50;;;24.70;49.90;;;;;;6192545;28;80386;-67
2021/09/12 04:50:22;;;;;;;11.50;6.47;;;24.60;50.20;;;;;;6190098;28;80414;-63
2021/09/12 04:53:23;;;;;;;11.30;6.13;;;24.70;49.80;;;;;;6199103;28;81877;-68
2021/09/12 04:56:23;;;;;;;13.63;7.60;;;24.70;49.70;;;;;;6186860;28;80321;-67
2021/09/12 04:59:24;;;;;;;10.27;6.57;;;24.70;50.80;;;;;;6198183;28;81090;-68
2021/09/12 05:02:24;;;;;;;14.93;6.82;;;24.70;50.50;;;;;;6182114;28;81674;-66
2021/09/12 05:05:25;;;;;;;44.47;20.38;;;24.70;50.80;;;;;;6188598;28;80370;-65
2021/09/12 05:08:25;;;;;;;88.28;36.42;;;24.70;50.80;;;;;;6181855;28;83546;-64
2021/09/12 05:11:26;;;;;;;212.60;85.22;;;24.70;50.00;;;;;;6186602;28;83314;-64
2021/09/12 05:14:27;;;;;;;210.88;82.40;;;24.70;50.30;;;;;;6193615;28;83577;-64
2021/09/12 05:17:27;;;;;;;251.05;100.53;;;24.70;50.20;;;;;;6183013;28;83243;-65
2021/09/12 05:20:27;;;;;;;295.13;116.20;;;24.70;49.90;;;;;;6184941;28;85260;-64
2021/09/12 05:23:29;;;;;;;360.20;141.50;;;24.70;50.20;;;;;;6182184;28;85585;-64
2021/09/12 05:26:29;;;;;;;357.23;138.52;;;24.70;50.10;;;;;;6176920;28;86132;-65
2021/09/12 05:29:30;;;;;;;368.67;146.35;;;24.70;51.20;;;;;;6175591;28;85906;-64
2021/09/12 05:32:30;;;;;;;335.67;137.25;;;24.80;51.80;;;;;;6174622;28;86360;-64
2021/09/12 05:35:31;;;;;;;342.92;138.55;;;24.80;51.50;;;;;;6167576;28;86504;-64
2021/09/12 05:38:31;;;;;;;273.60;110.55;;;24.80;50.60;;;;;;6177828;28;85636;-64
2021/09/12 05:41:32;;;;;;;272.33;108.63;;;24.80;51.40;;;;;;6194733;28;85310;-63
2021/09/12 05:44:32;;;;;;;271.42;112.28;;;24.80;50.40;;;;;;6168037;28;85722;-65
2021/09/12 05:47:32;;;;;;;246.07;100.40;;;24.80;51.10;;;;;;6184073;28;85520;-65
2021/09/12 05:50:33;;;;;;;219.00;92.22;;;24.80;50.60;;;;;;6184176;28;85769;-66
2021/09/12 05:53:34;;;;;;;281.92;109.68;;;24.80;50.50;;;;;;6190654;28;85362;-64
2021/09/12 05:56:34;;;;;;;249.65;97.78;;;24.80;51.10;;;;;;6180001;28;86354;-64
2021/09/12 05:59:34;;;;;;;240.52;97.38;;;24.80;50.50;;;;;;6184010;28;85375;-64
2021/09/12 06:02:36;;;;;;;228.65;95.25;;;24.80;51.60;;;;;;6169258;28;83497;-66
2021/09/12 06:05:37;;;;;;;207.07;82.50;;;24.80;51.00;;;;;;6189331;28;83088;-66
2021/09/12 06:08:37;;;;;;;166.00;72.25;;;24.80;50.80;;;;;;6180217;28;83445;-65
2021/09/12 06:11:38;;;;;;;152.45;59.92;;;24.80;50.70;;;;;;6177151;28;83056;-64
2021/09/12 06:14:38;;;;;;;119.28;52.83;;;24.80;50.90;;;;;;6177334;28;83365;-64
2021/09/12 06:17:38;;;;;;;119.63;50.13;;;24.80;50.50;;;;;;6172633;28;83027;-66
2021/09/12 06:20:39;;;;;;;101.32;43.50;;;24.80;50.80;;;;;;6169603;28;83150;-63
2021/09/12 06:23:39;;;;;;;99.47;39.42;;;24.80;50.20;;;;;;6182666;28;83259;-64
2021/09/12 06:26:40;;;;;;;80.28;33.80;;;24.90;50.80;;;;;;6182743;28;84248;-63
2021/09/12 06:29:40;;;;;;;66.35;28.15;;;24.90;49.80;;;;;;6171618;28;83082;-63
2021/09/12 06:32:41;;;;;;;59.42;27.63;;;24.90;50.30;;;;;;6185084;28;85345;-64
2021/09/12 06:35:41;;;;;;;62.40;26.80;;;24.90;51.10;;;;;;6183700;28;83174;-65
2021/09/12 06:38:42;;;;;;;55.33;22.75;;;24.90;50.70;;;;;;6168403;28;83851;-64
2021/09/12 06:41:42;;;;;;;40.55;19.85;;;24.90;51.10;;;;;;6179039;28;83598;-64
2021/09/12 06:44:43;;;;;;;69.32;20.63;;;24.90;50.60;;;;;;6174918;28;83145;-64
2021/09/12 06:47:43;;;;;;;29.13;15.13;;;24.90;50.70;;;;;;6172308;28;82969;-64
2021/09/12 06:50:44;;;;;;;27.75;13.23;;;24.90;50.50;;;;;;6175072;28;84466;-66
2021/09/12 06:53:44;;;;;;;25.23;11.63;;;24.90;50.10;;;;;;6173638;28;83527;-63
2021/09/12 06:56:45;;;;;;;23.10;11.55;;;24.90;50.10;;;;;;6165776;28;83435;-65
2021/09/12 06:59:45;;;;;;;18.42;10.50;;;24.90;50.60;;;;;;6167541;28;83402;-66
2021/09/12 07:02:46;;;;;;;23.70;10.68;;;24.90;50.20;;;;;;6165519;28;82940;-66
2021/09/12 07:05:46;;;;;;;21.80;10.88;;;24.90;50.40;;;;;;6178931;28;83556;-64
2021/09/12 07:08:47;;;;;;;16.65;9.85;;;24.90;50.30;;;;;;6180932;28;83109;-66
2021/09/12 07:11:47;;;;;;;17.92;10.05;;;24.90;50.90;;;;;;6196215;28;83001;-64
2021/09/12 07:14:48;;;;;;;16.45;9.50;;;24.90;50.10;;;;;;6188435;28;83211;-66
2021/09/12 07:17:48;;;;;;;16.42;8.82;;;24.90;50.20;;;;;;6186890;28;82959;-63
2021/09/12 07:20:49;;;;;;;16.85;8.63;;;24.90;50.90;;;;;;6180282;28;80785;-63
2021/09/12 07:23:49;;;;;;;18.00;8.85;;;24.90;51.50;;;;;;6184144;28;81932;-64
2021/09/12 07:26:49;;;;;;;16.67;8.18;;;24.90;52.30;;;;;;6178065;28;80702;-64
2021/09/12 07:29:50;;;;;;;17.30;8.55;;;24.90;52.10;;;;;;6186476;28;80880;-64
2021/09/12 07:32:51;;;;;;;15.68;8.32;;;25.00;52.30;;;;;;6189903;28;80397;-64
2021/09/12 07:35:51;;;;;;;17.52;7.63;;;25.00;52.60;;;;;;6187795;28;80572;-63
2021/09/12 07:38:52;;;;;;;27.75;8.73;;;24.90;52.90;;;;;;6183980;28;81416;-63
2021/09/12 07:41:52;;;;;;;16.63;8.15;;;24.90;52.60;;;;;;6190176;28;81634;-64
2021/09/12 07:44:53;;;;;;;15.40;8.02;;;25.00;51.80;;;;;;6202553;28;80617;-64
2021/09/12 07:47:53;;;;;;;19.13;8.13;;;25.00;51.60;;;;;;6195055;28;81805;-63
2021/09/12 07:50:54;;;;;;;12.00;7.78;;;25.00;51.40;;;;;;6184821;28;80346;-63
2021/09/12 07:53:54;;;;;;;17.88;8.38;;;25.00;51.20;;;;;;6186112;28;80797;-62
2021/09/12 07:56:55;;;;;;;21.08;8.27;;;25.00;51.10;;;;;;6177155;28;80324;-64
2021/09/12 07:59:56;;;;;;;13.32;7.60;;;25.10;51.00;;;;;;6183829;28;80631;-65
2021/09/12 08:02:56;;;;;;;13.50;7.75;;;25.10;51.00;;;;;;6184871;28;81554;-63
2021/09/12 08:05:57;;;;;;;10.65;7.30;;;25.10;51.00;;;;;;6179754;28;80491;-66
2021/09/12 08:08:57;;;;;;;12.80;7.75;;;25.10;51.60;;;;;;6185404;28;81010;-64
2021/09/12 08:11:58;;;;;;;14.55;8.40;;;25.10;51.20;;;;;;6182310;28;80423;-64
2021/09/12 08:14:58;;;;;;;14.43;7.90;;;25.10;51.40;;;;;;6182475;28;80917;-65
2021/09/12 08:17:59;;;;;;;14.73;8.77;;;25.10;51.30;;;;;;6186122;28;80616;-64
2021/09/12 08:20:59;;;;;;;10.85;7.75;;;25.20;51.30;;;;;;6182795;28;81753;-64
2021/09/12 08:24:00;;;;;;;11.18;8.05;;;25.20;51.60;;;;;;6184127;28;80280;-66
2021/09/12 08:27:00;;;;;;;13.05;8.30;;;25.20;51.60;;;;;;6185698;28;81513;-64
2021/09/12 08:30:01;;;;;;;10.70;8.15;;;25.20;51.40;;;;;;6188089;28;80708;-64
2021/09/12 08:33:01;;;;;;;13.77;8.40;;;25.20;51.60;;;;;;6183292;28;81648;-65
2021/09/12 08:36:02;;;;;;;11.75;7.63;;;25.20;51.50;;;;;;6182222;28;80229;-64
2021/09/12 08:39:02;;;;;;;19.90;9.38;;;25.20;51.10;;;;;;6184681;28;80784;-63
2021/09/12 08:42:03;;;;;;;13.00;8.00;;;25.20;51.50;;;;;;6183306;28;82508;-66
2021/09/12 08:45:03;;;;;;;14.70;7.63;;;25.30;51.60;;;;;;6180111;28;81833;-64
2021/09/12 08:48:04;;;;;;;13.32;7.55;;;25.30;51.30;;;;;;6172371;28;80326;-63
2021/09/12 08:51:04;;;;;;;13.50;8.18;;;25.30;51.30;;;;;;6181132;28;80436;-63
2021/09/12 08:54:05;;;;;;;11.48;8.32;;;25.30;51.30;;;;;;6183128;28;81116;-63
2021/09/12 08:57:05;;;;;;;11.27;8.27;;;25.30;51.90;;;;;;6181569;28;81332;-64
2021/09/12 09:00:08;;;;;;;13.60;9.05;;;25.30;52.90;;;;;;6177655;28;80130;-63
2021/09/12 09:03:08;;;;;;;18.98;9.25;;;25.30;52.60;;;;;;6176194;28;80717;-63
2021/09/12 09:06:09;;;;;;;47.45;17.70;;;25.30;52.10;;;;;;6173364;28;80910;-64
2021/09/12 09:09:10;;;;;;;22.52;11.55;;;25.30;53.30;;;;;;6180217;28;83136;-64
2021/09/12 09:12:10;;;;;;;23.65;12.20;;;25.30;52.60;;;;;;6177111;28;84345;-64
2021/09/12 09:15:12;;;;;;;26.00;10.98;;;25.30;52.70;;;;;;6184702;28;83907;-65
2021/09/12 09:18:12;;;;;;;17.65;10.73;;;25.40;52.80;;;;;;6196064;28;83235;-65
2021/09/12 09:21:13;;;;;;;16.40;9.30;;;25.40;52.50;;;;;;6185997;28;84435;-66
2021/09/12 09:24:15;;;;;;;18.35;10.23;;;25.50;52.40;;;;;;6180918;28;83552;-66
2021/09/12 09:27:15;;;;;;;16.13;9.68;;;25.50;52.20;;;;;;6194243;28;83303;-64
2021/09/12 09:30:15;;;;;;;17.45;9.20;;;25.50;52.10;;;;;;6176129;28;83190;-65
2021/09/12 09:33:16;;;;;;;12.55;8.48;;;25.50;52.30;;;;;;6195100;28;81110;-64
2021/09/12 09:36:18;;;;;;;16.73;9.10;;;25.50;52.40;;;;;;6184754;28;80610;-65
2021/09/12 09:39:19;;;;;;;16.00;8.38;;;25.60;52.70;;;;;;6196532;28;81598;-64
2021/09/12 09:42:19;;;;;;;11.27;8.73;;;25.60;52.60;;;;;;6199619;28;80497;-64
2021/09/12 09:45:19;;;;;;;13.02;8.98;;;25.70;52.70;;;;;;6191744;28;80747;-64
2021/09/12 09:48:20;;;;;;;10.38;7.90;;;25.70;52.70;;;;;;6195714;28;80438;-66
2021/09/12 09:51:20;;;;;;;11.52;8.60;;;25.70;52.60;;;;;;6182043;28;80234;-65
2021/09/12 09:54:21;;;;;;;12.60;8.38;;;25.70;52.80;;;;;;6180405;28;81441;-64
2021/09/12 09:57:21;;;;;;;10.70;8.15;;;25.70;52.80;;;;;;6180947;28;82343;-64
2021/09/12 10:00:22;;;;;;;14.70;7.47;;;25.80;53.30;;;;;;6190659;28;80368;-64
2021/09/12 10:03:22;;;;;;;10.85;7.97;;;25.80;52.40;;;;;;6183547;28;81403;-62
2021/09/12 10:06:23;;;;;;;11.55;7.75;;;25.80;52.60;;;;;;6180175;28;81448;-64
2021/09/12 10:09:23;;;;;;;11.88;8.00;;;25.90;52.70;;;;;;6183283;28;80575;-65
2021/09/12 10:12:24;;;;;;;11.57;8.45;;;25.90;52.70;;;;;;6192545;28;80721;-65
2021/09/12 10:15:24;;;;;;;15.00;7.60;;;26.00;53.10;;;;;;6195663;28;80346;-64
2021/09/12 10:18:25;;;;;;;12.25;8.27;;;26.00;53.10;;;;;;6180758;28;81436;-64
2021/09/12 10:21:25;;;;;;;14.10;8.30;;;26.10;53.20;;;;;;6180327;28;82039;-65
2021/09/12 10:24:26;;;;;;;10.30;7.78;;;26.10;53.40;;;;;;6181487;28;80277;-65
2021/09/12 10:27:26;;;;;;;11.15;7.50;;;26.10;52.80;;;;;;6178208;28;82455;-65
2021/09/12 10:30:27;;;;;;;9.95;7.20;;;26.20;52.60;;;;;;6170116;28;81822;-65
2021/09/12 10:33:28;;;;;;;10.05;7.80;;;26.10;52.30;;;;;;6191007;28;80309;-65
2021/09/12 10:36:28;;;;;;;10.00;7.63;;;26.10;52.30;;;;;;6195172;28;81417;-65
2021/09/12 10:39:31;;;;;;;9.48;6.88;;;26.10;52.20;;;;;;6194958;28;80324;-65
2021/09/12 10:42:32;;;;;;;10.90;7.22;;;26.10;52.70;;;;;;6199596;28;80588;-65
2021/09/12 10:45:32;;;;;;;11.23;7.38;;;26.10;52.40;;;;;;6171266;28;81498;-65
2021/09/12 10:48:33;;;;;;;8.93;6.90;;;26.20;52.20;;;;;;6182220;28;80898;-65
2021/09/12 10:51:33;;;;;;;11.80;7.22;;;26.20;52.50;;;;;;6179525;28;82818;-65
2021/09/12 10:54:34;;;;;;;9.27;6.93;;;26.30;52.60;;;;;;6175710;28;81056;-65
2021/09/12 10:57:34;;;;;;;10.50;6.57;;;26.30;52.20;;;;;;6179921;28;81683;-65
2021/09/12 11:00:35;;;;;;;7.18;6.22;;;26.40;52.00;;;;;;6177408;28;83256;-65
2021/09/12 11:03:35;;;;;;;8.90;6.40;;;26.40;52.10;;;;;;6191137;28;80429;-66
2021/09/12 11:06:36;;;;;;;8.35;6.55;;;26.40;51.70;;;;;;6180372;28;80140;-65
2021/09/12 11:09:36;;;;;;;9.57;5.85;;;26.40;51.70;;;;;;6197606;28;81874;-66
2021/09/12 11:12:37;;;;;;;9.00;6.93;;;26.40;51.40;;;;;;6189420;28;80932;-65
2021/09/12 11:15:37;;;;;;;9.52;6.25;;;26.40;51.30;;;;;;6181515;28;80590;-64
2021/09/12 11:18:38;;;;;;;9.48;6.57;;;26.40;51.30;;;;;;6184137;28;80732;-64
2021/09/12 11:21:38;;;;;;;8.48;6.40;;;26.50;51.40;;;;;;6184064;28;81041;-64
2021/09/12 11:24:39;;;;;;;9.32;6.53;;;26.50;51.90;;;;;;6185077;28;80310;-64
2021/09/12 11:27:39;;;;;;;9.05;6.50;;;26.50;51.80;;;;;;6186545;28;81317;-65
2021/09/12 11:30:40;;;;;;;12.52;7.47;;;26.50;52.50;;;;;;6176894;28;80153;-65
2021/09/12 11:33:40;;;;;;;8.35;6.60;;;26.50;52.10;;;;;;6183845;28;80596;-65
2021/09/12 11:36:41;;;;;;;10.60;7.40;;;26.50;52.30;;;;;;6182440;28;81013;-65
2021/09/12 11:39:41;;;;;;;12.38;7.18;;;26.40;52.30;;;;;;6183062;28;84103;-65
2021/09/12 11:42:42;;;;;;;8.95;7.15;;;26.40;52.30;;;;;;6178676;28;82251;-64
2021/09/12 11:45:42;;;;;;;12.23;6.88;;;26.40;52.40;;;;;;6181856;28;81009;-64
2021/09/12 11:48:43;;;;;;;10.00;6.82;;;26.40;52.00;;;;;;6180551;28;80343;-65
2021/09/12 11:51:43;;;;;;;9.43;6.60;;;26.40;52.30;;;;;;6177211;28;82015;-65
2021/09/12 11:54:43;;;;;;;9.32;7.25;;;26.40;52.00;;;;;;6174958;28;80603;-65
2021/09/12 11:57:44;;;;;;;9.48;6.68;;;26.40;51.90;;;;;;6182666;28;80864;-65
2021/09/12 12:00:46;;;;;;;11.10;7.03;;;26.40;51.20;;;;;;6183819;28;80920;-64
2021/09/12 12:03:47;;;;;;;9.48;6.90;;;26.50;51.20;;;;;;6182027;28;80322;-65
2021/09/12 12:06:47;;;;;;;8.70;6.28;;;26.50;51.30;;;;;;6174963;28;82008;-64
2021/09/12 12:09:48;;;;;;;9.57;7.20;;;26.50;51.60;;;;;;6176581;28;80535;-64
2021/09/12 12:12:48;;;;;;;10.90;7.82;;;26.50;51.80;;;;;;6168943;28;80683;-64
2021/09/12 12:15:49;;;;;;;9.35;7.18;;;26.50;51.70;;;;;;6182453;28;80290;-65
2021/09/12 12:18:49;;;;;;;9.02;7.22;;;26.40;51.00;;;;;;6198261;28;80934;-64
2021/09/12 12:21:50;;;;;;;8.45;6.45;;;26.40;50.90;;;;;;6188560;28;80313;-64
2021/09/12 12:24:50;;;;;;;8.63;6.13;;;26.40;49.70;;;;;;6188770;28;80375;-65
2021/09/12 12:27:51;;;;;;;10.27;6.30;;;26.40;49.70;;;;;;6174517;28;80810;-65
2021/09/12 12:30:51;;;;;;;7.85;5.95;;;26.40;49.30;;;;;;6149354;28;80995;-65
2021/09/12 12:33:52;;;;;;;8.45;6.22;;;26.40;50.00;;;;;;6178186;28;80234;-66
2021/09/12 12:36:57;;;;;;;9.07;6.60;;;26.40;49.90;;;;;;6179874;28;81660;-64
2021/09/12 12:39:57;;;;;;;9.80;6.10;;;26.30;50.10;;;;;;6171555;28;81396;-64
2021/09/12 12:42:58;;;;;;;9.25;6.40;;;26.30;49.70;;;;;;6183169;28;81274;-66
2021/09/12 12:45:58;;;;;;;10.00;6.32;;;26.20;49.60;;;;;;6194289;28;80625;-66
2021/09/12 12:48:59;;;;;;;7.10;6.03;;;26.20;49.80;;;;;;6200895;28;80382;-66
2021/09/12 12:51:59;;;;;;;9.23;6.72;;;26.20;50.40;;;;;;6184202;28;80417;-65
2021/09/12 12:55:00;;;;;;;9.75;6.55;;;26.20;50.00;;;;;;6183376;28;81807;-65
2021/09/12 12:58:04;;;;;;;7.80;6.75;;;26.20;50.30;;;;;;6181104;28;82608;-66
2021/09/12 13:01:04;;;;;;;10.55;7.43;;;26.20;50.30;;;;;;6179439;28;80467;-64
2021/09/12 13:04:04;;;;;;;11.27;8.15;;;26.20;51.00;;;;;;6187608;28;80896;-65
2021/09/12 13:07:05;;;;;;;10.80;8.05;;;26.10;50.90;;;;;;6186163;28;80637;-66
2021/09/12 13:10:05;;;;;;;11.05;7.30;;;26.10;51.00;;;;;;6173987;28;80740;-65
2021/09/12 13:13:06;;;;;;;8.20;6.93;;;26.20;51.20;;;;;;6183497;28;80953;-65
2021/09/12 13:16:07;;;;;;;8.52;7.13;;;26.10;51.30;;;;;;6180300;28;80510;-64
2021/09/12 13:19:07;;;;;;;12.05;7.35;;;26.10;51.10;;;;;;6183265;28;80601;-66
2021/09/12 13:22:07;;;;;;;10.40;6.75;;;26.10;51.10;;;;;;6184255;28;80533;-69
2021/09/12 13:25:08;;;;;;;7.88;6.70;;;26.10;50.50;;;;;;6176433;28;80418;-66
2021/09/12 13:28:09;;;;;;;13.27;7.05;;;26.30;50.80;;;;;;6169231;28;81793;-66
2021/09/12 13:31:09;;;;;;;9.32;6.25;;;26.30;50.50;;;;;;6183127;28;80726;-64
2021/09/12 13:34:09;;;;;;;9.48;7.13;;;26.20;50.70;;;;;;6183868;28;80920;-65
2021/09/12 13:37:10;;;;;;;8.45;6.45;;;26.20;51.40;;;;;;6195424;28;80618;-66
2021/09/12 13:40:10;;;;;;;8.65;6.93;;;26.20;50.90;;;;;;6196676;28;80467;-66
2021/09/12 13:43:11;;;;;;;7.18;6.07;;;26.20;51.40;;;;;;6187649;28;80613;-64
2021/09/12 13:46:11;;;;;;;7.80;6.35;;;26.20;51.70;;;;;;6194585;28;81362;-66
2021/09/12 13:49:12;;;;;;;11.45;7.30;;;26.20;51.70;;;;;;6182873;28;80579;-69
2021/09/12 13:52:12;;;;;;;8.25;6.55;;;26.20;52.60;;;;;;6197159;28;82441;-67
2021/09/12 13:55:13;;;;;;;7.38;6.18;;;26.20;52.10;;;;;;6189918;28;81877;-66
2021/09/12 13:58:13;;;;;;;10.25;6.88;;;26.10;52.30;;;;;;6181151;28;80835;-66
2021/09/12 14:01:14;;;;;;;9.10;6.20;;;26.10;52.30;;;;;;6183209;28;80061;-66
2021/09/12 14:04:14;;;;;;;9.57;6.30;;;26.10;52.10;;;;;;6168793;28;80748;-68
2021/09/12 14:07:15;;;;;;;9.10;6.60;;;26.20;52.30;;;;;;6181259;28;80497;-67
2021/09/12 14:10:15;;;;;;;11.27;7.18;;;26.10;51.80;;;;;;6181067;28;80506;-67
2021/09/12 14:13:16;;;;;;;9.60;6.47;;;26.10;51.70;;;;;;6179411;28;81005;-66
2021/09/12 14:16:16;;;;;;;7.32;6.35;;;26.10;51.50;;;;;;6191281;28;80947;-66
2021/09/12 14:19:16;;;;;;;11.27;6.75;;;26.10;51.40;;;;;;6167887;28;85678;-68
2021/09/12 14:22:17;;;;;;;10.57;6.10;;;26.10;51.70;;;;;;6183835;28;80340;-66
2021/09/12 14:25:17;;;;;;;9.40;6.28;;;26.10;51.30;;;;;;6199563;28;80419;-65
2021/09/12 14:28:18;;;;;;;9.52;6.70;;;26.10;51.10;;;;;;6180741;28;80635;-66
2021/09/12 14:31:19;;;;;;;8.82;6.60;;;26.10;51.50;;;;;;6192040;28;80469;-68
2021/09/12 14:34:21;;;;;;;9.02;6.57;;;26.10;50.70;;;;;;6174594;28;81092;-65
2021/09/12 14:37:21;;;;;;;9.13;6.78;;;26.10;50.90;;;;;;6195522;28;80476;-65
2021/09/12 14:40:22;;;;;;;12.75;7.22;;;26.10;51.20;;;;;;6193246;28;82731;-65
2021/09/12 14:43:23;;;;;;;8.95;6.25;;;26.00;51.40;;;;;;6184707;28;80212;-65
2021/09/12 14:46:23;;;;;;;10.07;6.47;;;26.10;51.10;;;;;;6180089;28;80671;-65
2021/09/12 14:49:24;;;;;;;8.18;6.07;;;26.10;51.10;;;;;;6177562;28;80801;-65
2021/09/12 14:52:24;;;;;;;11.68;5.70;;;26.10;51.10;;;;;;6192721;28;80702;-65
2021/09/12 14:55:25;;;;;;;10.45;6.72;;;26.00;50.90;;;;;;6181645;28;80703;-65
2021/09/12 14:58:26;;;;;;;9.02;5.93;;;26.10;51.20;;;;;;6188581;28;80966;-66
2021/09/12 15:01:27;;;;;;;7.03;6.00;;;26.00;50.90;;;;;;6180251;28;80452;-65
2021/09/12 15:04:28;;;;;;;9.55;6.18;;;26.10;51.10;;;;;;6176227;28;80093;-66
2021/09/12 15:07:29;;;;;;;9.90;5.80;;;26.00;51.10;;;;;;6181798;28;82141;-66
2021/09/12 15:10:29;;;;;;;7.90;5.93;;;26.00;51.00;;;;;;6186508;28;80563;-64
2021/09/12 15:13:30;;;;;;;9.80;6.35;;;26.00;50.90;;;;;;6193014;28;81553;-65
2021/09/12 15:16:30;;;;;;;9.90;6.65;;;26.00;51.10;;;;;;6186269;28;80873;-65
2021/09/12 15:19:31;;;;;;;7.03;5.80;;;26.00;51.10;;;;;;6192825;28;82142;-65
2021/09/12 15:22:31;;;;;;;7.35;5.47;;;26.00;51.10;;;;;;6174960;28;80459;-65
2021/09/12 15:25:31;;;;;;;10.45;5.32;;;26.00;51.40;;;;;;6182527;28;80236;-66